EGAC/BHD METAR and TAF weather

Enter ICAO airport designator
Station Type Date Time Source
EGAC METAR 2018/07/19 07:20 UTC NOAA

EGAC 190720Z AUTO 35006KT 320V020 9999 NCD 17/11 Q1020


Station Type Date Time Source
EGAC Decoded METAR 2018/07/19 07:20 UTC NOAA

Belfast / Harbour, United Kingdom (EGAC) 54-36N 005-53W 0M
Jul 19, 2018 - 03:20 AM EDT / 2018.07.19 0720 UTC
Wind: from the N (350 degrees) at 7 MPH (6 KT) (direction variable):0
Visibility: greater than 7 mile(s):0
Temperature: 62 F (17 C)
Dew Point: 51 F (11 C)
Relative Humidity: 67%
Pressure (altimeter): 30.12 in. Hg (1020 hPa)
ob: EGAC 190720Z AUTO 35006KT 320V020 9999 NCD 17/11 Q1020
cycle: 7

Station Type Date Time Source
EGAC TAF UTC NOAA

Error!


Example: see airport list